01TN weather

Colonial Air Park
Collierville, Tennessee, United States

Public forecast

Using degrees Fahrenheit for public forecast. Weather courtesy of forecast.io.

Closest aviation weather report (METAR) to Colonial Air Park

Closest report is Olive Branch Airport, 3.0 nm (5.5 km) WSW. Retrieved 2020/04/10 18:50 UTC (21 minutes ago):

KOLV 101850Z 36006G12KT 10SM SKC 13/M07 A3015

Closest aviation forecast (TAF) to Colonial Air Park

Closest forecast is Memphis International Airport, 12.4 nm (23.0 km) WNW. Retrieved 2020/04/10 18:42 UTC (29 minutes ago):

TAF KMEM 101740Z 1018/1124 04010KT P6SM SCT250 FM102100 02006KT P6SM SKC FM110000 VRB03KT P6SM SKC